createdAt,value
2019-03-25T00:01:29.679Z,3.70
2019-03-25T00:04:00.241Z,3.63
2019-03-25T00:06:31.627Z,3.43
2019-03-25T00:09:05.356Z,3.07
2019-03-25T00:11:34.278Z,3.50
2019-03-25T00:14:05.782Z,4.00
2019-03-25T00:16:36.354Z,3.77
2019-03-25T00:19:06.893Z,3.27
2019-03-25T00:21:37.512Z,3.40
2019-03-25T00:24:08.037Z,3.20
2019-03-25T00:26:38.697Z,3.70
2019-03-25T00:29:09.898Z,3.03
2019-03-25T00:31:40.583Z,3.03
2019-03-25T00:34:11.091Z,3.80
2019-03-25T00:36:42.505Z,3.60
2019-03-25T00:39:13.535Z,3.20
2019-03-25T00:41:44.372Z,3.30
2019-03-25T00:44:22.881Z,2.53
2019-03-25T00:46:52.294Z,3.00
2019-03-25T00:49:23.333Z,3.27
2019-03-25T00:51:54.130Z,3.17
2019-03-25T00:54:24.902Z,3.07
2019-03-25T00:56:55.569Z,2.63
2019-03-25T00:59:26.380Z,3.03
2019-03-25T01:01:57.080Z,3.10
2019-03-25T01:04:27.775Z,2.70
2019-03-25T01:06:58.445Z,3.27
2019-03-25T01:09:29.931Z,3.73
2019-03-25T01:12:01.046Z,3.10
2019-03-25T01:14:31.558Z,3.30
2019-03-25T01:17:03.781Z,3.90
2019-03-25T01:19:34.462Z,3.60
2019-03-25T01:22:05.164Z,3.87
2019-03-25T01:24:37.825Z,3.10
2019-03-25T01:27:08.582Z,3.73
2019-03-25T01:29:39.041Z,3.50
2019-03-25T01:32:10.036Z,3.43
2019-03-25T01:34:41.239Z,3.33
2019-03-25T01:37:11.881Z,4.17
2019-03-25T01:39:42.942Z,4.00
2019-03-25T01:42:13.798Z,3.80
2019-03-25T01:44:44.277Z,3.83
2019-03-25T01:47:14.780Z,3.90
2019-03-25T01:49:45.402Z,4.77
2019-03-25T01:52:16.276Z,4.13
2019-03-25T01:54:47.421Z,4.63
2019-03-25T01:57:18.702Z,4.80
2019-03-25T01:59:49.276Z,5.20
2019-03-25T02:02:20.029Z,4.83
2019-03-25T02:04:50.729Z,5.13
2019-03-25T02:07:21.538Z,4.93
2019-03-25T02:09:52.533Z,5.00
2019-03-25T02:12:23.311Z,4.93
2019-03-25T02:14:53.921Z,5.27
2019-03-25T02:17:25.075Z,5.40
2019-03-25T02:19:56.132Z,5.40
2019-03-25T02:22:26.843Z,6.00
2019-03-25T02:24:57.707Z,5.20
2019-03-25T02:27:29.922Z,5.30
2019-03-25T02:30:00.586Z,6.03
2019-03-25T02:32:31.107Z,4.97
2019-03-25T02:35:02.250Z,4.83
2019-03-25T02:37:33.190Z,4.87
2019-03-25T02:40:03.817Z,5.20
2019-03-25T02:42:34.391Z,5.60
2019-03-25T02:45:05.079Z,6.73
2019-03-25T02:47:35.734Z,5.50
2019-03-25T02:50:07.037Z,4.17
2019-03-25T02:52:37.845Z,3.97
2019-03-25T02:55:08.926Z,3.50
2019-03-25T02:57:39.834Z,2.63
2019-03-25T03:00:11.684Z,3.10
2019-03-25T03:02:42.424Z,2.70
2019-03-25T03:05:13.247Z,2.30
2019-03-25T03:07:43.811Z,1.90
2019-03-25T03:10:16.334Z,1.53
2019-03-25T03:12:47.806Z,1.67
2019-03-25T03:15:18.755Z,1.60
2019-03-25T03:17:49.465Z,1.83
2019-03-25T03:20:20.937Z,1.30
2019-03-25T03:22:51.951Z,1.60
2019-03-25T03:25:22.719Z,1.50
2019-03-25T03:27:53.516Z,1.57
2019-03-25T03:30:24.807Z,1.37
2019-03-25T03:32:55.391Z,1.50
2019-03-25T03:35:26.282Z,1.10
2019-03-25T03:37:57.517Z,1.10
2019-03-25T03:40:28.418Z,1.00
2019-03-25T03:42:58.962Z,1.10
2019-03-25T03:45:29.575Z,1.20
2019-03-25T03:48:00.567Z,1.20
2019-03-25T03:50:31.548Z,1.20
2019-03-25T03:53:02.632Z,1.57
2019-03-25T03:55:35.319Z,1.17
2019-03-25T03:58:06.361Z,1.40
2019-03-25T04:00:37.512Z,1.10
2019-03-25T04:03:08.444Z,1.20
2019-03-25T04:05:39.185Z,1.23
2019-03-25T04:08:10.807Z,1.53
2019-03-25T04:10:41.840Z,1.23
2019-03-25T04:13:12.352Z,1.10
2019-03-25T04:15:43.170Z,1.17
2019-03-25T04:18:13.920Z,1.00
2019-03-25T04:20:44.454Z,1.37
2019-03-25T04:23:15.430Z,1.10
2019-03-25T04:25:46.151Z,1.60
2019-03-25T04:28:16.690Z,1.30
2019-03-25T04:30:47.944Z,1.23
2019-03-25T04:33:18.573Z,1.70
2019-03-25T04:35:49.171Z,0.90
2019-03-25T04:38:19.753Z,1.00
2019-03-25T04:40:50.447Z,1.20
2019-03-25T04:43:21.099Z,1.30
2019-03-25T04:45:51.774Z,1.20
2019-03-25T04:48:22.594Z,1.20
2019-03-25T04:50:53.281Z,1.60
2019-03-25T04:53:24.187Z,1.50
2019-03-25T04:55:54.656Z,1.10
2019-03-25T04:58:25.296Z,1.40
2019-03-25T05:00:56.369Z,1.03
2019-03-25T05:03:27.374Z,1.50
2019-03-25T05:05:58.136Z,1.00
2019-03-25T05:08:28.636Z,1.60
2019-03-25T05:10:59.233Z,1.67
2019-03-25T05:13:30.097Z,1.23
2019-03-25T05:16:01.100Z,1.13
2019-03-25T05:18:31.775Z,1.50
2019-03-25T05:21:02.548Z,1.10
2019-03-25T05:23:33.513Z,1.20
2019-03-25T05:26:04.383Z,1.10
2019-03-25T05:28:34.897Z,1.30
2019-03-25T05:31:05.783Z,1.00
2019-03-25T05:33:36.377Z,1.33
2019-03-25T05:36:08.730Z,1.30
2019-03-25T05:38:39.659Z,0.93
2019-03-25T05:41:10.346Z,1.33
2019-03-25T05:43:40.874Z,1.00
2019-03-25T05:46:11.954Z,1.30
2019-03-25T05:48:42.545Z,1.30
2019-03-25T05:51:13.369Z,1.50
2019-03-25T05:53:44.589Z,1.33
2019-03-25T05:56:15.250Z,1.27
2019-03-25T05:58:45.791Z,1.37
2019-03-25T06:01:16.596Z,1.40
2019-03-25T06:03:47.149Z,1.17
2019-03-25T06:06:18.765Z,1.80
2019-03-25T06:08:52.665Z,1.83
2019-03-25T06:11:23.211Z,1.23
2019-03-25T06:13:53.941Z,1.47
2019-03-25T06:16:25.129Z,1.70
2019-03-25T06:18:56.006Z,1.53
2019-03-25T06:21:26.910Z,1.63
2019-03-25T06:23:58.110Z,2.70
2019-03-25T06:26:28.788Z,2.33
2019-03-25T06:28:59.409Z,2.00
2019-03-25T06:31:30.221Z,2.57
2019-03-25T06:34:00.908Z,2.03
2019-03-25T06:36:31.417Z,1.77
2019-03-25T06:39:02.389Z,1.70
2019-03-25T06:41:33.349Z,2.17
2019-03-25T06:44:11.157Z,1.50
2019-03-25T06:46:42.187Z,1.80
2019-03-25T06:49:12.693Z,1.63
2019-03-25T06:51:45.189Z,1.47
2019-03-25T06:54:16.078Z,2.00
2019-03-25T06:56:52.603Z,2.73
2019-03-25T06:59:23.050Z,1.80
2019-03-25T07:01:53.899Z,2.00
2019-03-25T07:04:24.457Z,1.80
2019-03-25T07:06:55.340Z,2.30
2019-03-25T07:09:25.988Z,1.97
2019-03-25T07:11:57.054Z,2.63
2019-03-25T07:14:27.790Z,2.30
2019-03-25T07:16:59.411Z,1.90
2019-03-25T07:19:30.123Z,2.53
2019-03-25T07:22:00.867Z,2.43
2019-03-25T07:24:31.850Z,2.30
2019-03-25T07:27:02.947Z,1.93
2019-03-25T07:29:34.059Z,2.07
2019-03-25T07:32:04.754Z,2.17
2019-03-25T07:34:35.147Z,1.80
2019-03-25T07:37:06.195Z,2.83
2019-03-25T07:39:37.249Z,3.20
2019-03-25T07:42:07.923Z,3.00
2019-03-25T07:44:38.777Z,2.93
2019-03-25T07:47:09.769Z,2.10
2019-03-25T07:49:40.377Z,2.07
2019-03-25T07:52:10.906Z,2.23
2019-03-25T07:54:41.673Z,2.30
2019-03-25T07:57:12.511Z,1.60
2019-03-25T07:59:43.295Z,1.80
2019-03-25T08:02:15.212Z,2.83
2019-03-25T08:04:46.200Z,2.10
2019-03-25T08:07:16.802Z,1.87
2019-03-25T08:09:47.595Z,1.50
2019-03-25T08:12:18.093Z,1.70
2019-03-25T08:14:49.470Z,1.23
2019-03-25T08:17:20.677Z,3.70
2019-03-25T08:19:51.356Z,4.40
2019-03-25T08:22:21.838Z,2.60
2019-03-25T08:24:52.558Z,3.63
2019-03-25T08:27:23.450Z,2.83
2019-03-25T08:29:54.465Z,2.50
2019-03-25T08:32:25.706Z,1.73
2019-03-25T08:34:56.906Z,2.13
2019-03-25T08:37:27.399Z,3.97
2019-03-25T08:39:58.151Z,2.90
2019-03-25T08:42:28.950Z,2.97
2019-03-25T08:44:59.903Z,2.20
2019-03-25T08:47:31.138Z,2.07
2019-03-25T08:50:01.581Z,1.30
2019-03-25T08:52:32.093Z,1.93
2019-03-25T08:55:03.590Z,2.60
2019-03-25T08:57:34.413Z,2.30
2019-03-25T09:00:05.158Z,1.53
2019-03-25T09:02:35.759Z,2.83
2019-03-25T09:05:07.088Z,1.90
2019-03-25T09:07:37.719Z,1.77
2019-03-25T09:10:08.553Z,1.47
2019-03-25T09:12:39.028Z,1.20
2019-03-25T09:15:10.766Z,2.03
2019-03-25T09:17:41.566Z,1.80
2019-03-25T09:20:12.509Z,2.03
2019-03-25T09:22:43.093Z,2.07
2019-03-25T09:25:14.723Z,1.30
2019-03-25T09:27:45.254Z,1.60
2019-03-25T09:30:36.191Z,1.40
2019-03-25T09:33:07.542Z,1.40
2019-03-25T09:35:38.144Z,1.50
2019-03-25T09:38:08.867Z,1.70
2019-03-25T09:40:39.560Z,1.70
2019-03-25T09:43:11.008Z,1.90
2019-03-25T09:45:42.026Z,1.40
2019-03-25T09:48:12.668Z,1.20
2019-03-25T09:50:44.486Z,1.00
2019-03-25T09:53:15.709Z,1.30
2019-03-25T09:55:46.066Z,0.90
2019-03-25T09:58:17.201Z,0.80
2019-03-25T10:00:47.798Z,1.00
2019-03-25T10:03:18.456Z,1.20
2019-03-25T10:05:48.927Z,1.00
2019-03-25T10:08:19.417Z,0.93
2019-03-25T10:10:50.107Z,1.27
2019-03-25T10:13:20.997Z,1.20
2019-03-25T10:15:51.590Z,1.50
2019-03-25T10:18:22.366Z,1.63
2019-03-25T10:20:53.353Z,1.80
2019-03-25T10:23:24.217Z,1.63
2019-03-25T10:25:55.224Z,1.90
2019-03-25T10:28:25.825Z,1.30
2019-03-25T10:30:57.275Z,1.57
2019-03-25T10:33:28.182Z,2.30
2019-03-25T10:35:58.939Z,2.00
2019-03-25T10:38:29.977Z,1.60
2019-03-25T10:41:00.949Z,1.67
2019-03-25T10:43:31.606Z,1.47
2019-03-25T10:46:02.801Z,1.57
2019-03-25T10:48:33.279Z,1.83
2019-03-25T10:51:03.866Z,1.27
2019-03-25T10:53:34.807Z,1.60
2019-03-25T10:56:06.197Z,1.23
2019-03-25T10:58:37.310Z,1.57
2019-03-25T11:01:09.562Z,2.27
2019-03-25T11:03:40.399Z,1.70
2019-03-25T11:06:11.006Z,1.83
2019-03-25T11:08:41.661Z,2.00
2019-03-25T11:11:12.538Z,1.67
2019-03-25T11:13:43.534Z,2.00
2019-03-25T11:16:14.321Z,2.63
2019-03-25T11:18:45.245Z,1.20
2019-03-25T11:21:16.015Z,1.33
2019-03-25T11:23:46.726Z,1.60
2019-03-25T11:26:17.558Z,1.83
2019-03-25T11:28:48.157Z,1.53
2019-03-25T11:31:20.075Z,2.00
2019-03-25T11:33:50.925Z,1.50
2019-03-25T11:36:21.549Z,1.57
2019-03-25T11:38:52.281Z,1.53
2019-03-25T11:41:22.962Z,1.70
2019-03-25T11:43:53.469Z,1.60
2019-03-25T11:46:24.785Z,1.53
2019-03-25T11:48:55.517Z,1.50
2019-03-25T11:51:26.310Z,1.60
2019-03-25T11:53:58.759Z,1.60
2019-03-25T11:56:29.501Z,1.60
2019-03-25T11:59:00.045Z,1.50
2019-03-25T12:01:30.768Z,1.57
2019-03-25T12:04:01.240Z,1.83
2019-03-25T12:06:31.740Z,1.30
2019-03-25T12:09:02.723Z,2.07
2019-03-25T12:11:33.869Z,1.47
2019-03-25T12:14:05.453Z,1.80
2019-03-25T12:16:36.435Z,1.70
2019-03-25T12:19:07.117Z,1.57
2019-03-25T12:21:37.775Z,1.30
2019-03-25T12:24:09.848Z,1.70
2019-03-25T12:26:41.141Z,1.27
2019-03-25T12:29:11.994Z,1.60
2019-03-25T12:31:43.330Z,1.30
2019-03-25T12:34:13.983Z,1.40
2019-03-25T12:36:44.969Z,1.93
2019-03-25T12:39:15.582Z,1.80
2019-03-25T12:41:47.573Z,2.37
2019-03-25T12:44:31.591Z,1.53
2019-03-25T12:47:02.213Z,1.50
2019-03-25T12:49:32.973Z,2.27
2019-03-25T12:52:03.804Z,1.67
2019-03-25T12:54:34.552Z,1.53
2019-03-25T12:57:05.163Z,1.60
2019-03-25T12:59:41.122Z,1.30
2019-03-25T13:02:08.246Z,1.53
2019-03-25T13:04:38.963Z,1.50
2019-03-25T13:07:09.854Z,0.90
2019-03-25T13:09:40.839Z,1.27
2019-03-25T13:12:11.668Z,1.00
2019-03-25T13:14:42.293Z,1.20
2019-03-25T13:17:13.341Z,1.20
2019-03-25T13:19:44.078Z,1.10
2019-03-25T13:22:14.683Z,1.10
2019-03-25T13:24:46.581Z,1.30
2019-03-25T13:27:17.324Z,1.43
2019-03-25T13:29:52.429Z,1.20
2019-03-25T13:32:20.165Z,1.53
2019-03-25T13:34:50.933Z,1.20
2019-03-25T13:37:22.480Z,1.37
2019-03-25T13:39:55.417Z,1.03
2019-03-25T13:42:26.273Z,1.30
2019-03-25T13:44:57.717Z,1.20
2019-03-25T13:47:30.072Z,1.00
2019-03-25T13:50:00.868Z,1.50
2019-03-25T13:52:31.658Z,1.10
2019-03-25T13:55:04.630Z,1.20
2019-03-25T13:57:43.733Z,1.20
2019-03-25T14:00:22.192Z,1.87
2019-03-25T14:02:52.958Z,1.90
2019-03-25T14:05:23.765Z,1.57
2019-03-25T14:07:54.994Z,1.67
2019-03-25T14:10:25.768Z,1.43
2019-03-25T14:12:57.000Z,1.30
2019-03-25T14:15:28.146Z,1.30
2019-03-25T14:17:59.854Z,1.30
2019-03-25T14:20:30.965Z,1.23
2019-03-25T14:23:02.160Z,1.27
2019-03-25T14:25:32.932Z,1.20
2019-03-25T14:28:08.149Z,1.63
2019-03-25T14:30:38.770Z,1.00
2019-03-25T14:33:09.282Z,1.50
2019-03-25T14:35:40.222Z,0.80
2019-03-25T14:38:10.913Z,0.80
2019-03-25T14:40:43.689Z,1.00
2019-03-25T14:43:14.778Z,2.37
2019-03-25T14:45:45.478Z,1.83
2019-03-25T14:48:19.397Z,1.13
2019-03-25T14:51:00.900Z,1.10
2019-03-25T14:53:31.499Z,1.20
2019-03-25T14:56:03.492Z,1.40
2019-03-25T14:58:34.609Z,1.07
2019-03-25T15:01:05.494Z,2.50
2019-03-25T15:03:47.570Z,2.43
2019-03-25T15:06:18.487Z,1.47
2019-03-25T15:08:49.374Z,1.10
2019-03-25T15:11:20.614Z,1.23
2019-03-25T15:13:51.482Z,1.30
2019-03-25T15:16:22.601Z,1.40
2019-03-25T15:18:53.397Z,1.10
2019-03-25T15:21:24.124Z,1.40
2019-03-25T15:23:55.141Z,0.90
2019-03-25T15:26:25.963Z,1.10
2019-03-25T15:28:56.821Z,1.50
2019-03-25T15:31:43.255Z,1.20
2019-03-25T15:34:13.956Z,0.83
2019-03-25T15:36:45.030Z,1.00
2019-03-25T15:39:15.669Z,1.10
2019-03-25T15:41:51.675Z,0.93
2019-03-25T15:44:34.361Z,1.10
2019-03-25T15:47:05.640Z,1.27
2019-03-25T15:49:36.586Z,1.10
2019-03-25T15:52:07.059Z,1.07
2019-03-25T15:54:37.833Z,1.33
2019-03-25T15:57:08.510Z,1.07
2019-03-25T15:59:39.675Z,1.27
2019-03-25T16:02:10.793Z,1.03
2019-03-25T16:04:41.542Z,1.20
2019-03-25T16:07:12.184Z,1.20
2019-03-25T16:09:43.217Z,1.83
2019-03-25T16:12:13.954Z,2.00
2019-03-25T16:14:44.697Z,1.47
2019-03-25T16:17:16.033Z,1.57
2019-03-25T16:20:07.082Z,1.30
2019-03-25T16:22:37.858Z,1.37
2019-03-25T16:25:09.149Z,1.20
2019-03-25T16:27:39.694Z,1.50
2019-03-25T16:30:11.221Z,1.67
2019-03-25T16:32:42.037Z,1.37
2019-03-25T16:35:13.327Z,1.73
2019-03-25T16:37:44.236Z,1.60
2019-03-25T16:40:15.217Z,1.27
2019-03-25T16:42:45.704Z,1.20
2019-03-25T16:45:16.299Z,1.73
2019-03-25T16:47:47.161Z,1.53
2019-03-25T16:50:17.926Z,1.20
2019-03-25T16:52:49.090Z,1.30
2019-03-25T16:55:29.519Z,1.70
2019-03-25T16:57:59.549Z,2.10
2019-03-25T17:00:30.493Z,1.97
2019-03-25T17:03:02.550Z,1.70
2019-03-25T17:05:36.665Z,1.53
2019-03-25T17:08:09.398Z,1.40
2019-03-25T17:10:40.313Z,1.57
2019-03-25T17:13:11.330Z,1.47
2019-03-25T17:15:41.970Z,1.17
2019-03-25T17:18:13.273Z,1.10
2019-03-25T17:20:43.937Z,1.20
2019-03-25T17:23:14.701Z,1.47
2019-03-25T17:25:52.938Z,1.50
2019-03-25T17:28:18.560Z,1.13
2019-03-25T17:30:49.625Z,1.40
2019-03-25T17:33:20.816Z,1.40
2019-03-25T17:35:51.711Z,1.20
2019-03-25T17:38:22.682Z,1.80
2019-03-25T17:40:54.005Z,1.60
2019-03-25T17:43:24.777Z,1.30
2019-03-25T17:45:55.717Z,1.37
2019-03-25T17:48:27.449Z,1.70
2019-03-25T17:50:58.267Z,1.43
2019-03-25T17:53:29.104Z,1.40
2019-03-25T17:56:00.495Z,1.13
2019-03-25T17:58:31.198Z,1.50
2019-03-25T18:01:31.798Z,1.77
2019-03-25T18:03:54.284Z,1.67
2019-03-25T18:06:25.526Z,1.93
2019-03-25T18:08:56.608Z,1.60
2019-03-25T18:11:27.543Z,1.63
2019-03-25T18:13:58.289Z,1.77
2019-03-25T18:16:29.322Z,1.47
2019-03-25T18:19:03.001Z,1.73
2019-03-25T18:21:33.694Z,1.60
2019-03-25T18:24:04.768Z,1.77
2019-03-25T18:26:36.793Z,1.67
2019-03-25T18:29:07.811Z,1.73
2019-03-25T18:31:43.432Z,2.07
2019-03-25T18:34:11.014Z,2.20
2019-03-25T18:36:42.356Z,1.87
2019-03-25T18:39:13.564Z,2.17
2019-03-25T18:41:44.650Z,1.80
2019-03-25T18:44:22.232Z,2.27
2019-03-25T18:46:52.176Z,2.33
2019-03-25T18:49:23.210Z,2.07
2019-03-25T18:51:54.042Z,1.70
2019-03-25T18:54:25.005Z,2.50
2019-03-25T18:56:55.775Z,2.30
2019-03-25T18:59:26.350Z,1.90
2019-03-25T19:01:57.074Z,2.00
2019-03-25T19:04:28.293Z,2.57
2019-03-25T19:06:59.126Z,1.90
2019-03-25T19:09:30.019Z,2.00
2019-03-25T19:12:00.642Z,1.90
2019-03-25T19:14:31.150Z,1.70
2019-03-25T19:17:02.027Z,2.50
2019-03-25T19:19:33.256Z,1.70
2019-03-25T19:22:05.398Z,2.47
2019-03-25T19:24:36.953Z,2.60
2019-03-25T19:27:07.957Z,2.27
2019-03-25T19:29:38.941Z,2.40
2019-03-25T19:32:09.902Z,2.10
2019-03-25T19:34:40.613Z,2.60
2019-03-25T19:37:11.467Z,2.20
2019-03-25T19:39:42.615Z,2.10
2019-03-25T19:42:13.638Z,2.33
2019-03-25T19:44:44.157Z,2.30
2019-03-25T19:47:15.293Z,2.37
2019-03-25T19:49:46.420Z,2.43
2019-03-25T19:52:17.183Z,2.33
2019-03-25T19:54:48.609Z,2.10
2019-03-25T19:57:19.908Z,2.60
2019-03-25T19:59:50.701Z,2.47
2019-03-25T20:02:21.515Z,2.50
2019-03-25T20:04:52.434Z,2.53
2019-03-25T20:07:23.447Z,3.50
2019-03-25T20:09:54.028Z,2.90
2019-03-25T20:12:24.494Z,3.93
2019-03-25T20:14:55.159Z,2.90
2019-03-25T20:17:26.200Z,2.70
2019-03-25T20:19:57.187Z,2.60
2019-03-25T20:22:28.033Z,3.10
2019-03-25T20:24:58.610Z,2.50
2019-03-25T20:27:29.598Z,3.00
2019-03-25T20:30:00.497Z,2.40
2019-03-25T20:32:32.146Z,2.40
2019-03-25T20:35:02.825Z,2.30
2019-03-25T20:37:33.604Z,2.40
2019-03-25T20:40:04.569Z,2.20
2019-03-25T20:42:35.527Z,2.00
2019-03-25T20:45:06.086Z,2.87
2019-03-25T20:47:36.779Z,2.67
2019-03-25T20:50:08.474Z,2.23
2019-03-25T20:52:39.036Z,3.10
2019-03-25T20:55:10.065Z,2.60
2019-03-25T20:57:41.915Z,2.60
2019-03-25T21:00:13.521Z,2.10
2019-03-25T21:02:45.517Z,2.43
2019-03-25T21:05:17.115Z,2.40
2019-03-25T21:07:47.721Z,2.53
2019-03-25T21:10:18.816Z,2.40
2019-03-25T21:12:49.618Z,2.67
2019-03-25T21:15:20.330Z,2.60
2019-03-25T21:17:50.942Z,3.33
2019-03-25T21:20:22.450Z,2.80
2019-03-25T21:22:52.865Z,2.70
2019-03-25T21:25:23.741Z,2.00
2019-03-25T21:27:54.541Z,2.73
2019-03-25T21:30:28.241Z,2.00
2019-03-25T21:32:58.808Z,2.60
2019-03-25T21:35:30.015Z,2.70
2019-03-25T21:38:00.714Z,2.13
2019-03-25T21:40:31.584Z,2.43
2019-03-25T21:43:02.258Z,2.60
2019-03-25T21:45:33.125Z,2.53
2019-03-25T21:48:03.907Z,2.70
2019-03-25T21:50:35.271Z,2.60
2019-03-25T21:53:06.110Z,2.50
2019-03-25T21:55:36.775Z,2.70
2019-03-25T21:58:07.851Z,2.33
2019-03-25T22:00:38.793Z,2.43
2019-03-25T22:03:12.063Z,3.50
2019-03-25T22:05:42.496Z,4.00
2019-03-25T22:08:13.374Z,3.47
2019-03-25T22:10:44.452Z,3.20
2019-03-25T22:13:15.027Z,2.80
2019-03-25T22:15:45.451Z,2.90
2019-03-25T22:18:16.579Z,2.70
2019-03-25T22:20:47.785Z,3.93
2019-03-25T22:23:18.686Z,3.60
2019-03-25T22:25:49.646Z,3.67
2019-03-25T22:28:20.655Z,2.63
2019-03-25T22:30:51.432Z,4.20
2019-03-25T22:33:26.178Z,3.07
2019-03-25T22:35:54.735Z,3.10
2019-03-25T22:38:25.775Z,3.00
2019-03-25T22:40:56.402Z,2.70
2019-03-25T22:43:27.209Z,3.07
2019-03-25T22:45:58.319Z,2.40
2019-03-25T22:48:28.901Z,2.40
2019-03-25T22:51:00.054Z,2.70
2019-03-25T22:53:30.825Z,2.60
2019-03-25T22:56:01.357Z,2.83
2019-03-25T22:58:32.268Z,2.83
2019-03-25T23:01:04.309Z,2.80
2019-03-25T23:03:39.317Z,3.50
2019-03-25T23:06:07.109Z,3.60
2019-03-25T23:08:37.983Z,2.70
2019-03-25T23:11:08.919Z,2.73
2019-03-25T23:13:39.723Z,3.10
2019-03-25T23:16:10.800Z,3.20
2019-03-25T23:18:41.483Z,3.40
2019-03-25T23:21:12.465Z,2.90
2019-03-25T23:23:43.191Z,2.60
2019-03-25T23:26:13.912Z,3.33
2019-03-25T23:28:44.874Z,3.40
2019-03-25T23:31:16.133Z,3.00
2019-03-25T23:33:52.180Z,3.03
2019-03-25T23:36:19.493Z,2.90
2019-03-25T23:38:50.553Z,3.33
2019-03-25T23:41:21.170Z,2.50
2019-03-25T23:43:52.041Z,3.13
2019-03-25T23:46:22.785Z,3.10
2019-03-25T23:48:53.596Z,2.77
2019-03-25T23:51:24.769Z,3.70
2019-03-25T23:54:11.918Z,3.47
2019-03-25T23:56:43.775Z,3.27
2019-03-25T23:59:14.578Z,2.93
